createdAt,value
2018-09-01T00:01:52.874Z,12.50
2018-09-01T00:04:23.636Z,12.50
2018-09-01T00:06:53.246Z,12.40
2018-09-01T00:09:22.950Z,12.30
2018-09-01T00:11:53.107Z,12.30
2018-09-01T00:14:31.507Z,12.30
2018-09-01T00:17:01.404Z,12.30
2018-09-01T00:19:30.945Z,12.20
2018-09-01T00:22:00.502Z,12.20
2018-09-01T00:27:03.895Z,12.10
2018-09-01T00:29:33.394Z,12.10
2018-09-01T00:32:02.989Z,12.10
2018-09-01T00:34:32.683Z,12.10
2018-09-01T00:37:02.308Z,12.10
2018-09-01T00:39:31.839Z,12.10
2018-09-01T00:42:01.309Z,12.00
2018-09-01T00:44:30.985Z,12.00
2018-09-01T00:47:00.664Z,12.00
2018-09-01T00:49:30.438Z,12.00
2018-09-01T00:52:00.081Z,11.90
2018-09-01T00:54:29.430Z,12.00
2018-09-01T00:56:58.986Z,11.90
2018-09-01T00:59:28.528Z,11.90
2018-09-01T01:01:58.288Z,11.90
2018-09-01T01:04:28.281Z,11.90
2018-09-01T01:07:02.609Z,11.90
2018-09-01T01:09:32.276Z,11.80
2018-09-01T01:12:02.048Z,11.80
2018-09-01T01:14:31.654Z,11.80
2018-09-01T01:19:39.259Z,11.80
2018-09-01T01:22:08.793Z,11.70
2018-09-01T01:24:38.431Z,11.70
2018-09-01T01:27:08.217Z,11.70
2018-09-01T01:29:37.881Z,11.70
2018-09-01T01:32:07.595Z,11.70
2018-09-01T01:34:37.245Z,11.60
2018-09-01T01:37:06.801Z,11.60
2018-09-01T01:39:36.385Z,11.60
2018-09-01T01:42:06.072Z,11.50
2018-09-01T01:44:35.620Z,11.50
2018-09-01T01:47:05.132Z,11.40
2018-09-01T01:49:43.476Z,11.40
2018-09-01T01:52:12.951Z,11.40
2018-09-01T01:54:42.410Z,11.40
2018-09-01T01:57:12.075Z,11.30
2018-09-01T01:59:50.380Z,11.30
2018-09-01T02:02:19.846Z,11.30
2018-09-01T02:04:50.206Z,11.30
2018-09-01T02:07:19.628Z,11.30
2018-09-01T02:09:49.276Z,11.30
2018-09-01T02:12:19.030Z,11.20
2018-09-01T02:14:48.558Z,11.20
2018-09-01T02:17:18.037Z,11.20
2018-09-01T02:19:47.527Z,11.10
2018-09-01T02:22:17.251Z,11.10
2018-09-01T02:24:46.800Z,11.10
2018-09-01T02:27:16.355Z,11.10
2018-09-01T02:29:46.064Z,11.00
2018-09-01T02:32:30.162Z,11.00
2018-09-01T02:34:59.953Z,11.00
2018-09-01T02:37:29.494Z,10.90
2018-09-01T02:39:59.085Z,10.80
2018-09-01T02:42:28.560Z,10.80
2018-09-01T02:44:58.325Z,10.70
2018-09-01T02:47:27.835Z,10.70
2018-09-01T02:49:57.502Z,10.70
2018-09-01T02:52:27.114Z,10.70
2018-09-01T02:54:56.654Z,10.70
2018-09-01T02:57:26.221Z,10.70
2018-09-01T02:59:56.646Z,10.70
2018-09-01T03:02:31.435Z,10.70
2018-09-01T03:05:02.838Z,10.70
2018-09-01T03:07:32.387Z,10.60
2018-09-01T03:10:02.032Z,10.60
2018-09-01T03:12:32.198Z,10.60
2018-09-01T03:15:10.136Z,10.50
2018-09-01T03:17:40.416Z,10.50
2018-09-01T03:20:10.062Z,10.50
2018-09-01T03:22:39.663Z,10.40
2018-09-01T03:25:09.295Z,10.40
2018-09-01T03:27:38.897Z,10.40
2018-09-01T03:30:08.466Z,10.40
2018-09-01T03:32:38.074Z,10.40
2018-09-01T03:35:07.601Z,10.40
2018-09-01T03:37:37.086Z,10.30
2018-09-01T03:40:08.151Z,10.30
2018-09-01T03:42:37.642Z,10.30
2018-09-01T03:45:07.500Z,10.30
2018-09-01T03:47:36.999Z,10.20
2018-09-01T03:50:06.795Z,10.20
2018-09-01T03:52:36.236Z,10.20
2018-09-01T03:55:06.484Z,10.10
2018-09-01T03:57:42.288Z,10.10
2018-09-01T04:00:15.929Z,10.10
2018-09-01T04:02:45.400Z,10.10
2018-09-01T04:05:15.824Z,10.10
2018-09-01T04:07:53.916Z,10.10
2018-09-01T04:10:25.114Z,10.00
2018-09-01T04:12:54.963Z,10.00
2018-09-01T04:15:24.581Z,10.00
2018-09-01T04:18:02.705Z,10.00
2018-09-01T04:20:32.472Z,9.90
2018-09-01T04:23:02.106Z,9.90
2018-09-01T04:25:31.537Z,9.90
2018-09-01T04:30:38.705Z,9.80
2018-09-01T04:33:08.253Z,9.80
2018-09-01T04:35:37.756Z,9.80
2018-09-01T04:38:07.396Z,9.80
2018-09-01T04:40:36.925Z,9.70
2018-09-01T04:43:06.719Z,9.70
2018-09-01T04:45:36.264Z,9.70
2018-09-01T04:48:05.775Z,9.70
2018-09-01T04:50:35.542Z,9.70
2018-09-01T04:53:04.933Z,9.60
2018-09-01T04:55:34.570Z,9.60
2018-09-01T04:58:08.698Z,9.60
2018-09-01T05:00:46.672Z,9.60
2018-09-01T05:03:16.145Z,9.50
2018-09-01T05:05:46.879Z,9.50
2018-09-01T05:08:16.427Z,9.50
2018-09-01T05:10:51.212Z,9.50
2018-09-01T05:13:21.888Z,9.50
2018-09-01T05:15:51.347Z,9.50
2018-09-01T05:18:21.018Z,9.50
2018-09-01T05:23:28.037Z,9.50
2018-09-01T05:25:57.602Z,9.50
2018-09-01T05:28:27.233Z,9.50
2018-09-01T05:30:56.768Z,9.50
2018-09-01T05:33:26.455Z,9.60
2018-09-01T05:35:56.161Z,9.60
2018-09-01T05:38:26.535Z,9.60
2018-09-01T05:40:56.153Z,9.60
2018-09-01T05:43:32.564Z,9.60
2018-09-01T05:46:02.174Z,9.60
2018-09-01T05:48:31.669Z,9.60
2018-09-01T05:51:01.121Z,9.60
2018-09-01T05:56:08.473Z,9.60
2018-09-01T05:58:38.147Z,9.60
2018-09-01T06:01:07.855Z,9.70
2018-09-01T06:03:37.782Z,9.70
2018-09-01T06:06:08.039Z,9.80
2018-09-01T06:08:37.816Z,9.80
2018-09-01T06:11:07.387Z,9.90
2018-09-01T06:13:37.922Z,9.90
2018-09-01T06:16:07.429Z,9.90
2018-09-01T06:18:37.046Z,10.00
2018-09-01T06:21:06.689Z,10.10
2018-09-01T06:23:36.446Z,10.20
2018-09-01T06:26:06.071Z,10.30
2018-09-01T06:28:40.417Z,10.40
2018-09-01T06:31:10.463Z,10.40
2018-09-01T06:33:40.629Z,10.50
2018-09-01T06:36:10.298Z,10.60
2018-09-01T06:38:40.653Z,10.60
2018-09-01T06:41:10.250Z,10.70
2018-09-01T06:43:40.841Z,10.80
2018-09-01T06:46:14.624Z,10.90
2018-09-01T06:48:44.328Z,11.10
2018-09-01T06:51:13.786Z,11.20
2018-09-01T06:53:43.499Z,11.30
2018-09-01T06:56:22.118Z,11.30
2018-09-01T06:58:51.832Z,11.50
2018-09-01T07:01:21.431Z,11.60
2018-09-01T07:03:50.893Z,11.70
2018-09-01T07:06:30.594Z,11.90
2018-09-01T07:09:00.403Z,12.00
2018-09-01T07:11:29.928Z,12.00
2018-09-01T07:14:00.070Z,12.20
2018-09-01T07:19:03.392Z,12.30
2018-09-01T07:21:33.107Z,12.40
2018-09-01T07:24:02.960Z,12.40
2018-09-01T07:26:32.618Z,12.50
2018-09-01T07:29:02.414Z,12.50
2018-09-01T07:31:32.301Z,12.60
2018-09-01T07:34:01.709Z,12.70
2018-09-01T07:36:31.336Z,12.80
2018-09-01T07:39:00.812Z,12.80
2018-09-01T07:41:30.359Z,13.00
2018-09-01T07:43:59.828Z,13.00
2018-09-01T07:46:29.920Z,13.20
2018-09-01T07:48:59.521Z,13.30
2018-09-01T07:51:29.320Z,13.30
2018-09-01T07:53:59.102Z,13.40
2018-09-01T07:56:28.774Z,13.40
2018-09-01T07:58:58.498Z,13.50
2018-09-01T08:01:28.139Z,13.60
2018-09-01T08:03:58.245Z,13.60
2018-09-01T08:06:27.398Z,13.70
2018-09-01T08:08:56.406Z,13.80
2018-09-01T08:11:25.260Z,13.90
2018-09-01T08:13:54.341Z,14.00
2018-09-01T08:16:24.070Z,14.10
2018-09-01T08:18:53.421Z,14.10
2018-09-01T08:21:22.485Z,14.20
2018-09-01T08:23:52.125Z,14.30
2018-09-01T08:26:21.769Z,14.40
2018-09-01T08:28:50.841Z,14.40
2018-09-01T08:31:20.026Z,14.50
2018-09-01T08:33:49.972Z,14.60
2018-09-01T08:36:19.180Z,14.70
2018-09-01T08:38:48.133Z,14.70
2018-09-01T08:41:18.617Z,14.80
2018-09-01T08:43:49.534Z,14.90
2018-09-01T08:46:18.507Z,15.00
2018-09-01T08:48:48.128Z,15.00
2018-09-01T08:51:17.165Z,15.10
2018-09-01T08:53:46.543Z,15.20
2018-09-01T08:56:15.688Z,15.30
2018-09-01T08:58:45.063Z,15.40
2018-09-01T09:01:14.128Z,15.50
2018-09-01T09:03:47.724Z,15.60
2018-09-01T09:06:17.929Z,15.60
2018-09-01T09:08:48.738Z,15.70
2018-09-01T09:11:17.785Z,15.80
2018-09-01T09:13:47.001Z,15.90
2018-09-01T09:16:16.132Z,16.00
2018-09-01T09:18:45.165Z,16.20
2018-09-01T09:21:13.978Z,16.30
2018-09-01T09:23:42.862Z,16.50
2018-09-01T09:26:11.745Z,16.60
2018-09-01T09:28:40.575Z,16.80
2018-09-01T09:31:09.415Z,16.90
2018-09-01T09:33:38.587Z,17.00
2018-09-01T09:36:07.859Z,17.00
2018-09-01T09:38:37.906Z,16.90
2018-09-01T09:41:07.656Z,16.90
2018-09-01T09:43:36.717Z,16.90
2018-09-01T09:48:56.379Z,17.30
2018-09-01T09:51:25.451Z,17.60
2018-09-01T09:53:54.353Z,17.90
2018-09-01T09:56:23.794Z,18.20
2018-09-01T09:58:52.975Z,18.40
2018-09-01T10:01:26.829Z,18.40
2018-09-01T10:03:55.722Z,18.30
2018-09-01T10:06:25.429Z,18.20
2018-09-01T10:08:54.612Z,18.00
2018-09-01T10:11:23.472Z,17.90
2018-09-01T10:13:59.536Z,17.80
2018-09-01T10:16:31.734Z,17.70
2018-09-01T10:19:01.168Z,17.70
2018-09-01T10:21:30.175Z,18.00
2018-09-01T10:23:59.109Z,18.40
2018-09-01T10:26:44.783Z,18.80
2018-09-01T10:29:13.896Z,19.20
2018-09-01T10:31:43.631Z,19.60
2018-09-01T10:34:13.504Z,19.70
2018-09-01T10:36:43.037Z,19.70
2018-09-01T10:39:12.061Z,19.70
2018-09-01T10:41:40.969Z,19.90
2018-09-01T10:44:11.703Z,20.10
2018-09-01T10:46:40.750Z,20.50
2018-09-01T10:49:09.880Z,20.80
2018-09-01T10:51:38.925Z,20.90
2018-09-01T10:54:08.505Z,21.30
2018-09-01T10:56:37.661Z,21.70
2018-09-01T10:59:07.038Z,22.10
2018-09-01T11:01:36.109Z,22.30
2018-09-01T11:04:05.422Z,22.40
2018-09-01T11:06:36.042Z,22.20
2018-09-01T11:09:07.049Z,22.00
2018-09-01T11:11:36.205Z,21.80
2018-09-01T11:14:07.687Z,21.60
2018-09-01T11:16:36.873Z,21.50
2018-09-01T11:19:08.010Z,21.50
2018-09-01T11:21:37.292Z,21.40
2018-09-01T11:24:06.568Z,21.60
2018-09-01T11:26:36.608Z,22.10
2018-09-01T11:29:06.132Z,22.50
2018-09-01T11:31:35.563Z,22.60
2018-09-01T11:36:58.247Z,22.50
2018-09-01T11:39:28.175Z,22.90
2018-09-01T11:41:57.465Z,23.20
2018-09-01T11:44:27.096Z,23.50
2018-09-01T11:46:56.664Z,23.50
2018-09-01T11:49:25.675Z,23.30
2018-09-01T11:51:54.878Z,23.00
2018-09-01T11:54:24.150Z,22.80
2018-09-01T11:56:53.145Z,22.70
2018-09-01T11:59:22.732Z,22.60
2018-09-01T12:01:52.738Z,22.90
2018-09-01T12:04:21.926Z,23.20
2018-09-01T12:06:52.141Z,23.50
2018-09-01T12:09:22.179Z,23.90
2018-09-01T12:11:51.251Z,24.30
2018-09-01T12:14:20.377Z,24.40
2018-09-01T12:16:49.498Z,24.20
2018-09-01T12:19:18.649Z,23.90
2018-09-01T12:21:48.035Z,23.60
2018-09-01T12:24:16.846Z,23.40
2018-09-01T12:26:45.803Z,23.20
2018-09-01T12:29:14.638Z,23.10
2018-09-01T12:31:43.604Z,23.00
2018-09-01T12:34:12.324Z,22.90
2018-09-01T12:36:41.404Z,22.90
2018-09-01T12:39:10.597Z,22.80
2018-09-01T12:41:39.932Z,22.80
2018-09-01T12:44:09.788Z,22.60
2018-09-01T12:46:39.056Z,22.40
2018-09-01T12:49:07.912Z,22.30
2018-09-01T12:51:36.889Z,22.70
2018-09-01T12:54:06.764Z,23.30
2018-09-01T12:56:37.256Z,23.40
2018-09-01T12:59:06.685Z,23.70
2018-09-01T13:01:35.994Z,23.90
2018-09-01T13:04:05.038Z,24.10
2018-09-01T13:06:34.200Z,24.40
2018-09-01T13:09:05.341Z,24.70
